createdAt,value
2016-10-28T00:00:37.897Z,1073.84
2016-10-28T00:01:37.903Z,1074.07
2016-10-28T00:02:37.908Z,1074.43
2016-10-28T00:03:37.885Z,1074.44
2016-10-28T00:04:37.877Z,1074.3
2016-10-28T00:05:37.899Z,1073.71
2016-10-28T00:06:37.907Z,1073.91
2016-10-28T00:07:37.890Z,1073.86
2016-10-28T00:08:37.896Z,1074.08
2016-10-28T00:09:37.919Z,1074.48
2016-10-28T00:10:37.894Z,1074.64
2016-10-28T00:11:37.890Z,1075.25
2016-10-28T00:12:40.402Z,1075.54
2016-10-28T00:13:38.232Z,1075.75
2016-10-28T00:14:39.775Z,1075.63
2016-10-28T00:15:37.906Z,1075.97
2016-10-28T00:16:37.891Z,1075.73
2016-10-28T00:17:40.266Z,1075.55
2016-10-28T00:18:40.128Z,1075.45
2016-10-28T00:19:40.327Z,1075.76
2016-10-28T00:20:40.661Z,1075.61
2016-10-28T00:21:40.713Z,1075.11
2016-10-28T00:22:40.462Z,1074.49
2016-10-28T00:23:40.289Z,1073.49
2016-10-28T00:24:40.754Z,1072.6
2016-10-28T00:25:40.248Z,1071.62
2016-10-28T00:26:40.179Z,1070.62
2016-10-28T00:27:40.517Z,1069.77
2016-10-28T00:28:40.242Z,1068.46
2016-10-28T00:29:40.241Z,1067.78
2016-10-28T00:30:40.383Z,1066.71
2016-10-28T00:31:40.044Z,1066.06
2016-10-28T00:32:40.633Z,1065.27
2016-10-28T00:33:40.289Z,1064.45
2016-10-28T00:34:40.584Z,1063.71
2016-10-28T00:35:40.206Z,1063.14
2016-10-28T00:36:40.055Z,1062.59
2016-10-28T00:37:37.908Z,1062.33
2016-10-28T00:38:37.915Z,1062.38
2016-10-28T00:39:37.902Z,1062.33
2016-10-28T00:40:37.904Z,1061.94
2016-10-28T00:41:37.899Z,1061.92
2016-10-28T00:42:37.912Z,1061.62
2016-10-28T00:43:37.918Z,1061.14
2016-10-28T00:44:37.900Z,1061.01
2016-10-28T00:45:37.924Z,1060.99
2016-10-28T00:46:37.902Z,1061.47
2016-10-28T00:47:37.911Z,1061.47
2016-10-28T00:48:37.907Z,1062
2016-10-28T00:49:37.904Z,1062.21
2016-10-28T00:50:37.924Z,1062.26
2016-10-28T00:51:37.912Z,1062.69
2016-10-28T00:52:37.905Z,1063.03
2016-10-28T00:53:37.917Z,1063.46
2016-10-28T00:54:37.904Z,1063.62
2016-10-28T00:55:37.943Z,1064.51
2016-10-28T00:56:37.918Z,1065.1
2016-10-28T00:57:37.926Z,1065.63
2016-10-28T00:58:37.918Z,1066.03
2016-10-28T00:59:37.924Z,1066.67
2016-10-28T01:00:37.971Z,1067.23
2016-10-28T01:01:37.920Z,1067.96
2016-10-28T01:02:37.920Z,1068.78
2016-10-28T01:03:37.932Z,1069.53
2016-10-28T01:04:37.929Z,1070.29
2016-10-28T01:05:37.933Z,1071.34
2016-10-28T01:06:37.924Z,1071.68
2016-10-28T01:07:37.930Z,1072.62
2016-10-28T01:08:37.949Z,1072.41
2016-10-28T01:09:37.942Z,1072.84
2016-10-28T01:10:37.948Z,1073.26
2016-10-28T01:11:37.936Z,1073.47
2016-10-28T01:12:37.952Z,1073.57
2016-10-28T01:13:37.936Z,1073.81
2016-10-28T01:14:37.940Z,1074.28
2016-10-28T01:15:37.985Z,1074.69
2016-10-28T01:16:37.943Z,1074.84
2016-10-28T01:17:37.946Z,1075.12
2016-10-28T01:18:37.950Z,1075.68
2016-10-28T01:19:37.937Z,1076.15
2016-10-28T01:20:37.981Z,1077.02
2016-10-28T01:21:37.948Z,1077.07
2016-10-28T01:22:37.954Z,1077.03
2016-10-28T01:23:37.934Z,1077.17
2016-10-28T01:24:37.951Z,1077.15
2016-10-28T01:25:37.951Z,1077.09
2016-10-28T01:26:37.975Z,1076.69
2016-10-28T01:27:37.940Z,1076.81
2016-10-28T01:28:37.963Z,1076.6
2016-10-28T01:29:37.950Z,1077.02
2016-10-28T01:30:37.964Z,1077.2
2016-10-28T01:31:37.954Z,1077.65
2016-10-28T01:32:37.957Z,1077.9
2016-10-28T01:33:37.977Z,1077.79
2016-10-28T01:34:37.954Z,1077.78
2016-10-28T01:35:37.973Z,1078
2016-10-28T01:36:37.961Z,1078.28
2016-10-28T01:37:37.952Z,1078.1
2016-10-28T01:38:37.955Z,1078.41
2016-10-28T01:39:37.964Z,1078.66
2016-10-28T01:40:37.971Z,1078.42
2016-10-28T01:41:37.980Z,1078.44
2016-10-28T01:42:37.968Z,1078.5
2016-10-28T01:43:37.968Z,1078.37
2016-10-28T01:44:37.974Z,1078.45
2016-10-28T01:45:37.973Z,1078.46
2016-10-28T01:46:37.960Z,1078.69
2016-10-28T01:47:37.957Z,1078.95
2016-10-28T01:48:37.978Z,1079.11
2016-10-28T01:49:37.965Z,1079.01
2016-10-28T01:50:37.976Z,1078.88
2016-10-28T01:51:37.988Z,1078.59
2016-10-28T01:52:37.975Z,1078.14
2016-10-28T01:53:37.972Z,1078.09
2016-10-28T01:54:37.986Z,1077.95
2016-10-28T01:55:37.954Z,1077.46
2016-10-28T01:56:37.983Z,1077.67
2016-10-28T01:57:37.994Z,1077.17
2016-10-28T01:58:37.958Z,1077.2
2016-10-28T01:59:37.983Z,1077.39
2016-10-28T02:00:37.983Z,1077.29
2016-10-28T02:01:37.983Z,1077.19
2016-10-28T02:02:37.988Z,1076.88
2016-10-28T02:03:37.993Z,1076.81
2016-10-28T02:04:38.002Z,1076.53
2016-10-28T02:05:37.994Z,1076.65
2016-10-28T02:06:37.984Z,1076.66
2016-10-28T02:07:38.004Z,1076.51
2016-10-28T02:08:37.999Z,1076.41
2016-10-28T02:09:37.988Z,1076.47
2016-10-28T02:10:37.996Z,1076.28
2016-10-28T02:11:38.003Z,1076.22
2016-10-28T02:12:37.997Z,1076.18
2016-10-28T02:13:38.000Z,1076.4
2016-10-28T02:14:38.003Z,1075.93
2016-10-28T02:15:37.994Z,1076.05
2016-10-28T02:16:37.990Z,1075.7
2016-10-28T02:17:37.997Z,1075.86
2016-10-28T02:18:37.997Z,1075.45
2016-10-28T02:19:37.995Z,1075.66
2016-10-28T02:20:37.998Z,1075.59
2016-10-28T02:21:38.008Z,1075.81
2016-10-28T02:22:38.014Z,1075.68
2016-10-28T02:23:38.009Z,1075.6
2016-10-28T02:24:38.012Z,1075.09
2016-10-28T02:25:38.005Z,1075.03
2016-10-28T02:26:38.001Z,1075.42
2016-10-28T02:27:37.999Z,1075.18
2016-10-28T02:28:38.005Z,1075.29
2016-10-28T02:29:38.016Z,1074.84
2016-10-28T02:30:38.013Z,1075.11
2016-10-28T02:31:38.003Z,1075.06
2016-10-28T02:32:38.033Z,1075.07
2016-10-28T02:33:38.012Z,1075.17
2016-10-28T02:34:38.026Z,1074.98
2016-10-28T02:35:38.016Z,1074.86
2016-10-28T02:36:38.010Z,1075.13
2016-10-28T02:37:38.040Z,1075.01
2016-10-28T02:38:38.057Z,1075.34
2016-10-28T02:39:38.017Z,1075.16
2016-10-28T02:40:38.038Z,1075.37
2016-10-28T02:41:38.031Z,1075.08
2016-10-28T02:42:38.040Z,1075.04
2016-10-28T02:43:38.013Z,1075.46
2016-10-28T02:44:38.033Z,1075.24
2016-10-28T02:45:38.030Z,1075.39
2016-10-28T02:46:38.032Z,1075.69
2016-10-28T02:47:38.034Z,1075.64
2016-10-28T02:48:38.040Z,1075.55
2016-10-28T02:49:38.047Z,1075.53
2016-10-28T02:50:38.052Z,1075.54
2016-10-28T02:51:38.047Z,1075.41
2016-10-28T02:52:38.064Z,1075.25
2016-10-28T02:53:38.022Z,1075.35
2016-10-28T02:54:38.029Z,1075.33
2016-10-28T02:55:38.033Z,1075.25
2016-10-28T02:56:38.039Z,1075.11
2016-10-28T02:57:38.048Z,1075.58
2016-10-28T02:58:38.059Z,1075.58
2016-10-28T02:59:38.060Z,1075.73
2016-10-28T03:00:38.028Z,1075.75
2016-10-28T03:01:38.051Z,1076.05
2016-10-28T03:02:38.057Z,1076.24
2016-10-28T03:03:38.041Z,1075.81
2016-10-28T03:04:38.043Z,1076.72
2016-10-28T03:05:38.050Z,1076.77
2016-10-28T03:06:38.041Z,1076.45
2016-10-28T03:07:38.064Z,1076.64
2016-10-28T03:08:38.080Z,1076.76
2016-10-28T03:09:38.059Z,1076.66
2016-10-28T03:10:38.054Z,1076.86
2016-10-28T03:11:38.056Z,1077.5
2016-10-28T03:12:38.055Z,1077.14
2016-10-28T03:13:38.067Z,1077.46
2016-10-28T03:14:38.051Z,1077.45
2016-10-28T03:15:38.301Z,1077.33
2016-10-28T03:16:38.050Z,1077.55
2016-10-28T03:17:38.059Z,1077.64
2016-10-28T03:18:38.088Z,1077.26
2016-10-28T03:19:38.051Z,1077.11
2016-10-28T03:20:38.057Z,1077.11
2016-10-28T03:21:38.050Z,1076.84
2016-10-28T03:22:38.071Z,1076.34
2016-10-28T03:23:38.076Z,1076.81
2016-10-28T03:24:38.067Z,1076.4
2016-10-28T03:25:38.076Z,1076.54
2016-10-28T03:26:38.067Z,1076.32
2016-10-28T03:27:38.079Z,1076.03
2016-10-28T03:28:38.056Z,1076.63
2016-10-28T03:29:38.069Z,1076.05
2016-10-28T03:30:38.072Z,1076.56
2016-10-28T03:31:38.090Z,1076.62
2016-10-28T03:32:38.061Z,1076.89
2016-10-28T03:33:38.073Z,1077
2016-10-28T03:34:38.075Z,1076.71
2016-10-28T03:35:38.084Z,1076.84
2016-10-28T03:36:38.088Z,1077.17
2016-10-28T03:37:38.110Z,1077.41
2016-10-28T03:38:38.080Z,1077.44
2016-10-28T03:39:38.295Z,1077.6
2016-10-28T03:40:38.088Z,1077.43
2016-10-28T03:41:38.107Z,1077.37
2016-10-28T03:42:38.102Z,1077.44
2016-10-28T03:43:38.094Z,1077.31
2016-10-28T03:44:38.093Z,1077.25
2016-10-28T03:45:38.100Z,1077.04
2016-10-28T03:46:38.100Z,1077.38
2016-10-28T03:47:38.084Z,1076.99
2016-10-28T03:48:38.087Z,1077.27
2016-10-28T03:49:39.100Z,1077.11
2016-10-28T03:50:38.091Z,1077.27
2016-10-28T03:51:38.103Z,1077.17
2016-10-28T03:52:38.092Z,1077.05
2016-10-28T03:53:38.092Z,1076.89
2016-10-28T03:54:38.093Z,1077
2016-10-28T03:55:38.101Z,1076.69
2016-10-28T03:56:38.086Z,1076.93
2016-10-28T03:57:38.090Z,1077.14
2016-10-28T03:58:38.088Z,1077.19
2016-10-28T03:59:38.087Z,1077.23
2016-10-28T04:00:38.111Z,1077.28
2016-10-28T04:01:38.104Z,1077.27
2016-10-28T04:02:38.096Z,1076.81
2016-10-28T04:03:38.101Z,1077.04
2016-10-28T04:04:38.101Z,1077.12
2016-10-28T04:05:38.100Z,1077.34
2016-10-28T04:06:38.106Z,1077.36
2016-10-28T04:07:38.109Z,1077.5
2016-10-28T04:08:38.125Z,1077.49
2016-10-28T04:09:38.095Z,1077.58
2016-10-28T04:10:38.111Z,1077.2
2016-10-28T04:11:38.103Z,1077.31
2016-10-28T04:12:38.110Z,1077.01
2016-10-28T04:13:38.115Z,1077.1
2016-10-28T04:14:38.107Z,1077
2016-10-28T04:15:38.099Z,1076.8
2016-10-28T04:16:38.105Z,1076.48
2016-10-28T04:17:38.112Z,1076.46
2016-10-28T04:18:38.116Z,1076.5
2016-10-28T04:19:38.102Z,1076.66
2016-10-28T04:20:38.109Z,1076.97
2016-10-28T04:21:38.128Z,1076.96
2016-10-28T04:22:38.119Z,1077.54
2016-10-28T04:23:38.119Z,1077.61
2016-10-28T04:24:38.125Z,1077.73
2016-10-28T04:25:38.115Z,1077.82
2016-10-28T04:26:38.129Z,1077.67
2016-10-28T04:27:38.135Z,1077.42
2016-10-28T04:28:38.116Z,1076.9
2016-10-28T04:29:38.129Z,1076.9
2016-10-28T04:30:38.121Z,1076.67
2016-10-28T04:31:38.128Z,1076.34
2016-10-28T04:32:38.120Z,1075.74
2016-10-28T04:33:38.120Z,1075.54
2016-10-28T04:34:38.132Z,1075.73
2016-10-28T04:35:38.125Z,1075.75
2016-10-28T04:36:38.117Z,1075.38
2016-10-28T04:37:38.117Z,1075.3
2016-10-28T04:38:38.123Z,1075.04
2016-10-28T04:39:38.130Z,1075.01
2016-10-28T04:40:38.151Z,1075.1
2016-10-28T04:41:38.238Z,1074.63
2016-10-28T04:42:38.136Z,1074.76
2016-10-28T04:43:38.135Z,1075.32
2016-10-28T04:44:38.135Z,1075.28
2016-10-28T04:45:38.132Z,1075.63
2016-10-28T04:46:38.149Z,1075.41
2016-10-28T04:47:38.158Z,1075.46
2016-10-28T04:48:38.178Z,1075.44
2016-10-28T04:49:38.134Z,1076.06
2016-10-28T04:50:38.138Z,1075.89
2016-10-28T04:51:38.139Z,1076.2
2016-10-28T04:52:38.126Z,1076.09
2016-10-28T04:53:38.130Z,1076.19
2016-10-28T04:54:38.155Z,1076.04
2016-10-28T04:55:38.143Z,1075.82
2016-10-28T04:56:38.159Z,1076.28
2016-10-28T04:57:38.152Z,1076.58
2016-10-28T04:58:38.140Z,1076.57
2016-10-28T04:59:38.131Z,1076.3
2016-10-28T05:00:38.152Z,1076.41
2016-10-28T05:01:38.142Z,1076.26
2016-10-28T05:02:38.149Z,1076.14
2016-10-28T05:03:38.153Z,1076.32
2016-10-28T05:04:38.149Z,1076.48
2016-10-28T05:05:38.159Z,1077.17
2016-10-28T05:06:38.144Z,1077.01
2016-10-28T05:07:38.361Z,1076.88
2016-10-28T05:08:38.148Z,1077.08
2016-10-28T05:09:38.188Z,1077.36
2016-10-28T05:10:38.160Z,1077.29
2016-10-28T05:11:38.177Z,1077.21
2016-10-28T05:12:38.187Z,1077.02
2016-10-28T05:13:38.163Z,1077.24
2016-10-28T05:14:38.159Z,1077.64
2016-10-28T05:15:38.166Z,1077.78
2016-10-28T05:16:38.155Z,1077.46
2016-10-28T05:17:38.174Z,1077.46
2016-10-28T05:18:38.183Z,1077.42
2016-10-28T05:19:38.161Z,1077.4
2016-10-28T05:20:38.165Z,1077.87
2016-10-28T05:21:38.172Z,1078.01
2016-10-28T05:22:38.164Z,1077.68
2016-10-28T05:23:38.168Z,1077.76
2016-10-28T05:24:38.175Z,1077.81
2016-10-28T05:25:38.825Z,1077.85
2016-10-28T05:26:38.277Z,1077.5
2016-10-28T05:27:38.171Z,1077.73
2016-10-28T05:28:38.175Z,1077.46
2016-10-28T05:29:38.202Z,1077.33
2016-10-28T05:30:38.216Z,1076.76
2016-10-28T05:31:38.166Z,1076.58
2016-10-28T05:32:38.200Z,1076.51
2016-10-28T05:33:38.214Z,1076.08
2016-10-28T05:34:38.171Z,1076.38
2016-10-28T05:35:38.206Z,1076.55
2016-10-28T05:36:38.196Z,1075.92
2016-10-28T05:37:38.186Z,1075.81
2016-10-28T05:38:38.282Z,1076.07
2016-10-28T05:39:38.200Z,1075.76
2016-10-28T05:40:38.178Z,1075.93
2016-10-28T05:41:38.273Z,1075.89
2016-10-28T05:42:38.185Z,1075.91
2016-10-28T05:43:38.180Z,1075.78
2016-10-28T05:44:38.170Z,1076.1
2016-10-28T05:45:38.179Z,1075.74
2016-10-28T05:46:38.247Z,1075.7
2016-10-28T05:47:38.177Z,1075.8
2016-10-28T05:48:38.186Z,1075.56
2016-10-28T05:49:38.190Z,1075.58
2016-10-28T05:50:38.199Z,1075.79
2016-10-28T05:51:38.175Z,1075.73
2016-10-28T05:52:38.223Z,1075.42
2016-10-28T05:53:38.194Z,1075.53
2016-10-28T05:54:38.196Z,1075.57
2016-10-28T05:55:38.202Z,1075.41
2016-10-28T05:56:38.200Z,1075.35
2016-10-28T05:57:38.205Z,1075.56
2016-10-28T05:58:38.193Z,1075.71
2016-10-28T05:59:38.208Z,1075.73
2016-10-28T06:00:38.740Z,1075.8
2016-10-28T06:01:38.212Z,1076.04
2016-10-28T06:02:38.795Z,1076.57
2016-10-28T06:03:38.193Z,1076.13
2016-10-28T06:04:38.221Z,1075.9
2016-10-28T06:05:38.302Z,1076.04
2016-10-28T06:06:38.208Z,1076.11
2016-10-28T06:07:38.195Z,1075.73
2016-10-28T06:08:38.209Z,1075.76
2016-10-28T06:09:38.217Z,1075.91
2016-10-28T06:10:38.200Z,1076.05
2016-10-28T06:11:38.202Z,1076.24
2016-10-28T06:12:38.214Z,1076.64
2016-10-28T06:13:38.259Z,1076.84
2016-10-28T06:14:38.215Z,1077.11
2016-10-28T06:15:38.220Z,1078.16
2016-10-28T06:16:38.212Z,1078.9
2016-10-28T06:17:38.198Z,1079.86
2016-10-28T06:18:38.215Z,1080.42
2016-10-28T06:19:38.221Z,1080.86
2016-10-28T06:20:38.211Z,1081.4
2016-10-28T06:21:38.234Z,1082
2016-10-28T06:22:38.198Z,1081.94
2016-10-28T06:23:38.218Z,1082.69
2016-10-28T06:24:38.212Z,1082.63
2016-10-28T06:25:38.224Z,1083.04
2016-10-28T06:26:38.284Z,1083.31
2016-10-28T06:27:38.217Z,1083.61
2016-10-28T06:28:38.209Z,1084.15
2016-10-28T06:29:38.245Z,1084.22
2016-10-28T06:30:38.244Z,1084.43
2016-10-28T06:31:38.543Z,1084.64
2016-10-28T06:32:38.284Z,1084.29
2016-10-28T06:33:38.237Z,1084.97
2016-10-28T06:34:38.233Z,1085.72
2016-10-28T06:35:38.227Z,1086.21
2016-10-28T06:36:38.330Z,1086.95
2016-10-28T06:37:38.240Z,1087.49
2016-10-28T06:38:38.216Z,1087.43
2016-10-28T06:39:38.236Z,1087.46
2016-10-28T06:40:38.300Z,1087.41
2016-10-28T06:41:38.245Z,1087.65
2016-10-28T06:42:38.243Z,1088.11
2016-10-28T06:43:38.236Z,1088.71
2016-10-28T06:44:38.237Z,1088.67
2016-10-28T06:45:38.243Z,1088.83
2016-10-28T06:46:38.253Z,1089.39
2016-10-28T06:47:38.221Z,1089.53
2016-10-28T06:48:38.239Z,1089.35
2016-10-28T06:49:38.493Z,1089.22
2016-10-28T06:50:38.283Z,1089.08
2016-10-28T06:51:38.225Z,1089.41
2016-10-28T06:52:38.230Z,1089.69
2016-10-28T06:53:38.245Z,1089.99
2016-10-28T06:54:38.244Z,1090.52
2016-10-28T06:55:38.244Z,1091.11
2016-10-28T06:56:38.225Z,1091.22
2016-10-28T06:57:38.249Z,1091.32
2016-10-28T06:58:38.247Z,1091.45
2016-10-28T06:59:38.268Z,1091.93
2016-10-28T07:00:38.245Z,1092.18
2016-10-28T07:01:38.238Z,1092.39
2016-10-28T07:02:38.258Z,1092.73
2016-10-28T07:03:38.252Z,1092.71
2016-10-28T07:04:38.251Z,1092.97
2016-10-28T07:05:38.247Z,1093.25
2016-10-28T07:06:38.257Z,1093.86
2016-10-28T07:07:38.278Z,1093.86
2016-10-28T07:08:38.264Z,1094.06
2016-10-28T07:09:38.255Z,1094.04
2016-10-28T07:10:38.261Z,1094.02
2016-10-28T07:11:38.268Z,1093.9
2016-10-28T07:12:38.263Z,1093.72
2016-10-28T07:13:38.271Z,1093.71
2016-10-28T07:14:38.254Z,1093.7
2016-10-28T07:15:38.254Z,1093.65
2016-10-28T07:16:38.274Z,1093.51
2016-10-28T07:17:38.266Z,1093.93
2016-10-28T07:18:38.261Z,1093.98
2016-10-28T07:19:38.267Z,1094.02
2016-10-28T07:20:38.255Z,1094.23
2016-10-28T07:21:38.266Z,1094.35
2016-10-28T07:22:38.258Z,1094.89
2016-10-28T07:23:38.257Z,1095.16
2016-10-28T07:24:38.266Z,1095.48
2016-10-28T07:25:38.260Z,1095.76
2016-10-28T07:26:39.274Z,1095.92
2016-10-28T07:27:38.269Z,1096.16
2016-10-28T07:28:38.251Z,1096.27
2016-10-28T07:29:38.257Z,1096
2016-10-28T07:30:38.263Z,1096.18
2016-10-28T07:31:38.276Z,1096.68
2016-10-28T07:32:38.267Z,1096.49
2016-10-28T07:33:38.271Z,1096.62
2016-10-28T07:34:38.264Z,1097.22
2016-10-28T07:35:38.258Z,1097.26
2016-10-28T07:36:38.266Z,1097.66
2016-10-28T07:37:38.267Z,1098.03
2016-10-28T07:38:38.277Z,1098.52
2016-10-28T07:39:38.306Z,1098.7
2016-10-28T07:40:38.272Z,1099.09
2016-10-28T07:41:38.282Z,1099.66
2016-10-28T07:42:38.285Z,1099.98
2016-10-28T07:43:38.311Z,1100.56
2016-10-28T07:44:38.276Z,1101.11
2016-10-28T07:45:38.307Z,1101.64
2016-10-28T07:46:38.292Z,1101.98
2016-10-28T07:47:38.276Z,1101.88
2016-10-28T07:48:38.285Z,1101.86
2016-10-28T07:49:38.276Z,1101.69
2016-10-28T07:50:38.298Z,1101.41
2016-10-28T07:51:38.290Z,1101.24
2016-10-28T07:52:38.301Z,1101.43
2016-10-28T07:53:38.287Z,1101.48
2016-10-28T07:54:38.285Z,1101.25
2016-10-28T07:55:38.302Z,1101.02
2016-10-28T07:56:38.298Z,1100.99
2016-10-28T07:57:38.290Z,1100.59
2016-10-28T07:58:38.285Z,1100.69
2016-10-28T07:59:38.551Z,1100.75
2016-10-28T08:00:38.371Z,1100.94
2016-10-28T08:01:38.312Z,1101.15
2016-10-28T08:02:38.312Z,1101.36
2016-10-28T08:03:38.307Z,1101.59
2016-10-28T08:04:38.482Z,1101.69
2016-10-28T08:05:38.547Z,1101.58
2016-10-28T08:06:38.294Z,1101.81
2016-10-28T08:07:38.298Z,1102.91
2016-10-28T08:08:38.585Z,1103.22
2016-10-28T08:09:38.443Z,1104.06
2016-10-28T08:10:38.317Z,1104.53
2016-10-28T08:11:38.340Z,1105.05
2016-10-28T08:12:38.323Z,1105.91
2016-10-28T08:13:38.327Z,1106.5
2016-10-28T08:14:38.305Z,1106.86
2016-10-28T08:15:38.328Z,1107.16
2016-10-28T08:16:38.328Z,1107.76
2016-10-28T08:17:38.301Z,1108.03
2016-10-28T08:18:38.320Z,1108.46
2016-10-28T08:19:38.333Z,1109.12
2016-10-28T08:20:38.331Z,1109.62
2016-10-28T08:21:38.323Z,1110.4
2016-10-28T08:22:38.311Z,1110.94
2016-10-28T08:23:38.309Z,1111.28
2016-10-28T08:24:38.310Z,1111.38
2016-10-28T08:25:38.382Z,1111.39
2016-10-28T08:26:38.462Z,1111.39
2016-10-28T08:27:38.318Z,1111.36
2016-10-28T08:28:39.674Z,1111.09
2016-10-28T08:29:38.317Z,1110.56
2016-10-28T08:30:38.382Z,1110.5
2016-10-28T08:31:38.491Z,1110.64
2016-10-28T08:32:38.321Z,1110.91
2016-10-28T08:33:38.390Z,1111.04
2016-10-28T08:34:38.376Z,1111.9
2016-10-28T08:35:38.329Z,1112.53
2016-10-28T08:36:38.355Z,1113.05
2016-10-28T08:37:38.608Z,1113.74
2016-10-28T08:38:38.322Z,1113.95
2016-10-28T08:39:38.339Z,1114.28
2016-10-28T08:40:38.806Z,1115
2016-10-28T08:41:38.634Z,1115.61
2016-10-28T08:42:38.336Z,1116.75
2016-10-28T08:43:38.654Z,1117.72
2016-10-28T08:44:38.537Z,1118.29
2016-10-28T08:45:38.332Z,1119.34
2016-10-28T08:46:38.355Z,1120.05
2016-10-28T08:47:38.442Z,1121.19
2016-10-28T08:48:38.347Z,1121.91
2016-10-28T08:49:38.342Z,1122.97
2016-10-28T08:50:39.160Z,1123.51
2016-10-28T08:51:39.338Z,1124.92
2016-10-28T08:52:39.037Z,1126.14
2016-10-28T08:53:38.352Z,1126.72
2016-10-28T08:54:38.342Z,1127.12
2016-10-28T08:55:38.339Z,1127.46
2016-10-28T08:56:38.362Z,1128.11
2016-10-28T08:57:38.378Z,1128.51
2016-10-28T08:58:38.345Z,1129.06
2016-10-28T08:59:38.390Z,1129.56
2016-10-28T09:00:38.352Z,1129.23
2016-10-28T09:01:38.360Z,1128.55
2016-10-28T09:02:38.347Z,1127.73
2016-10-28T09:03:38.444Z,1127.17
2016-10-28T09:04:38.391Z,1126.45
2016-10-28T09:05:38.342Z,1126.43
2016-10-28T09:06:38.370Z,1126.28
2016-10-28T09:07:38.362Z,1126.18
2016-10-28T09:08:38.340Z,1125.63
2016-10-28T09:09:38.365Z,1125.35
2016-10-28T09:10:38.542Z,1125.44
2016-10-28T09:11:38.438Z,1125.62
2016-10-28T09:12:38.368Z,1125.39
2016-10-28T09:13:38.359Z,1125.09
2016-10-28T09:14:38.364Z,1124.95
2016-10-28T09:15:38.352Z,1125.07
2016-10-28T09:16:38.375Z,1125.23
2016-10-28T09:17:38.366Z,1125.43
2016-10-28T09:18:38.366Z,1125.59
2016-10-28T09:19:38.361Z,1125.41
2016-10-28T09:20:38.375Z,1125.6
2016-10-28T09:21:38.366Z,1125.34
2016-10-28T09:22:38.362Z,1125.49
2016-10-28T09:23:38.367Z,1125.73
2016-10-28T09:24:38.365Z,1126.01
2016-10-28T09:25:38.611Z,1126.6
2016-10-28T09:26:38.388Z,1127.21
2016-10-28T09:27:38.398Z,1127.62
2016-10-28T09:28:38.376Z,1127.85
2016-10-28T09:29:38.369Z,1128.71
2016-10-28T09:30:38.372Z,1129.5
2016-10-28T09:31:38.416Z,1130
2016-10-28T09:32:38.384Z,1130.51
2016-10-28T09:33:38.357Z,1131.01
2016-10-28T09:34:38.360Z,1130.98
2016-10-28T09:35:38.393Z,1131.01
2016-10-28T09:36:38.425Z,1130.85
2016-10-28T09:37:38.377Z,1131.01
2016-10-28T09:38:38.374Z,1131.15
2016-10-28T09:39:38.369Z,1131.19
2016-10-28T09:40:38.385Z,1131.45
2016-10-28T09:41:38.398Z,1131.54
2016-10-28T09:42:38.371Z,1131.87
2016-10-28T09:43:38.515Z,1132.34
2016-10-28T09:44:38.387Z,1133.65
2016-10-28T09:45:38.397Z,1135.12
2016-10-28T09:46:39.086Z,1136.96
2016-10-28T09:47:38.371Z,1138.27
2016-10-28T09:48:38.391Z,1139.43
2016-10-28T09:49:38.468Z,1140.04
2016-10-28T09:50:38.393Z,1140.92
2016-10-28T09:51:38.413Z,1141.83
2016-10-28T09:52:38.423Z,1142.34
2016-10-28T09:53:38.384Z,1142.86
2016-10-28T09:54:38.404Z,1142.92
2016-10-28T09:55:38.389Z,1142.61
2016-10-28T09:56:38.490Z,1142.58
2016-10-28T09:57:38.406Z,1142.75
2016-10-28T09:58:38.405Z,1142.55
2016-10-28T09:59:38.394Z,1142.18
2016-10-28T10:00:38.403Z,1141.81
2016-10-28T10:01:38.394Z,1141.32
2016-10-28T10:02:38.397Z,1141.19
2016-10-28T10:03:39.212Z,1140.71
2016-10-28T10:04:38.401Z,1140.21
2016-10-28T10:05:38.391Z,1139.75
2016-10-28T10:06:38.413Z,1139.14
2016-10-28T10:07:38.419Z,1137.96
2016-10-28T10:08:38.417Z,1137.64
2016-10-28T10:09:38.810Z,1137.54
2016-10-28T10:10:38.409Z,1137.96
2016-10-28T10:11:38.436Z,1138.15
2016-10-28T10:12:38.465Z,1138.65
2016-10-28T10:13:38.411Z,1138.86
2016-10-28T10:14:38.404Z,1139.01
2016-10-28T10:15:38.411Z,1139.21
2016-10-28T10:16:38.419Z,1140.02
2016-10-28T10:17:38.422Z,1140.51
2016-10-28T10:18:38.429Z,1140.37
2016-10-28T10:19:38.408Z,1140.11
2016-10-28T10:20:38.416Z,1139.81
2016-10-28T10:21:38.420Z,1139.56
2016-10-28T10:22:38.413Z,1139.67
2016-10-28T10:23:38.405Z,1139.86
2016-10-28T10:24:38.581Z,1139.88
2016-10-28T10:25:38.416Z,1139.81
2016-10-28T10:26:38.420Z,1140.06
2016-10-28T10:27:38.428Z,1140.37
2016-10-28T10:28:38.429Z,1140.64
2016-10-28T10:29:38.439Z,1141.05
2016-10-28T10:30:38.422Z,1141.04
2016-10-28T10:31:38.439Z,1141.12
2016-10-28T10:32:38.438Z,1140.73
2016-10-28T10:33:38.432Z,1140.25
2016-10-28T10:34:38.644Z,1139.96
2016-10-28T10:35:38.424Z,1139.6
2016-10-28T10:36:38.772Z,1139.2
2016-10-28T10:37:38.435Z,1138.83
2016-10-28T10:38:38.500Z,1138.84
2016-10-28T10:39:38.438Z,1138.88
2016-10-28T10:40:38.432Z,1138.76
2016-10-28T10:41:38.457Z,1138.8
2016-10-28T10:42:38.445Z,1138.94
2016-10-28T10:43:38.529Z,1138.93
2016-10-28T10:44:38.448Z,1139.21
2016-10-28T10:45:38.446Z,1139.19
2016-10-28T10:46:38.544Z,1140.32
2016-10-28T10:47:38.527Z,1140.93
2016-10-28T10:48:38.444Z,1140.95
2016-10-28T10:49:38.615Z,1141.12
2016-10-28T10:50:38.436Z,1140.8
2016-10-28T10:51:38.451Z,1140.72
2016-10-28T10:52:38.605Z,1140.61
2016-10-28T10:53:38.438Z,1140.96
2016-10-28T10:54:38.460Z,1141.17
2016-10-28T10:55:38.436Z,1141.36
2016-10-28T10:56:38.459Z,1141.33
2016-10-28T10:57:38.491Z,1141.43
2016-10-28T10:58:38.512Z,1141.34
2016-10-28T10:59:38.438Z,1141.59
2016-10-28T11:00:38.455Z,1141.32
2016-10-28T11:01:38.622Z,1141.23
2016-10-28T11:02:38.499Z,1141.25
2016-10-28T11:03:38.563Z,1141.11
2016-10-28T11:04:38.453Z,1140.7
2016-10-28T11:05:38.457Z,1140.73
2016-10-28T11:06:38.471Z,1140.54
2016-10-28T11:07:38.447Z,1140.84
2016-10-28T11:08:38.447Z,1140.92
2016-10-28T11:09:49.762Z,1140.83
2016-10-28T11:11:11.320Z,1140.08
2016-10-28T11:12:33.585Z,1138.82
2016-10-28T11:13:50.742Z,1137.32
2016-10-28T11:15:12.123Z,1136.23
2016-10-28T11:16:36.458Z,1134.83
2016-10-28T11:17:57.454Z,1133.75
2016-10-28T11:19:14.648Z,1132.86
2016-10-28T11:20:35.546Z,1132.84
2016-10-28T11:21:57.626Z,1133.31
2016-10-28T11:23:21.656Z,1135.51
2016-10-28T11:24:42.856Z,1138.61
2016-10-28T11:26:05.409Z,1141.51
2016-10-28T11:27:28.004Z,1145.22
2016-10-28T11:30:21.156Z,1155.67
2016-10-28T11:31:41.760Z,1155.88
2016-10-28T11:33:02.945Z,1154.77
2016-10-28T11:34:24.438Z,1152.89
2016-10-28T11:35:42.731Z,1150.69
2016-10-28T11:36:49.616Z,1148.56
2016-10-28T11:38:09.374Z,1146.63
2016-10-28T11:39:31.347Z,1144.88
2016-10-28T11:40:52.891Z,1144.21
2016-10-28T11:42:14.235Z,1143.81
2016-10-28T11:43:43.860Z,1143.35
2016-10-28T11:45:05.118Z,1143.48
2016-10-28T11:46:27.102Z,1143.23
2016-10-28T11:47:51.418Z,1142.64
2016-10-28T11:49:14.969Z,1142.1
2016-10-28T11:50:33.511Z,1141.83
2016-10-28T11:51:56.086Z,1141.41
2016-10-28T11:53:21.476Z,1140.59
2016-10-28T11:54:44.371Z,1140.2
2016-10-28T11:56:06.635Z,1139.15
2016-10-28T11:57:29.699Z,1138.58
2016-10-28T11:58:54.634Z,1137.5
2016-10-28T12:00:19.253Z,1136.87
2016-10-28T12:01:42.569Z,1135.36
2016-10-28T12:03:10.052Z,1134.11
2016-10-28T12:04:33.530Z,1132.52
2016-10-28T12:05:57.495Z,1131.17
2016-10-28T12:07:20.094Z,1130.78
2016-10-28T12:08:40.468Z,1130.42
2016-10-28T12:10:03.921Z,1129.98
2016-10-28T12:11:28.660Z,1129
2016-10-28T12:12:51.544Z,1128.16
2016-10-28T12:14:13.243Z,1128.08
2016-10-28T12:15:39.252Z,1127.59
2016-10-28T12:17:02.375Z,1127.66
2016-10-28T12:18:29.901Z,1127.37
2016-10-28T12:19:51.011Z,1127.55
2016-10-28T12:21:11.731Z,1127.79
2016-10-28T12:22:31.556Z,1127.83
2016-10-28T12:23:51.632Z,1128.4
2016-10-28T12:25:15.905Z,1128.25
2016-10-28T12:26:24.090Z,1129
2016-10-28T12:27:37.151Z,1129.59
2016-10-28T12:28:57.889Z,1130.2
2016-10-28T12:30:18.914Z,1130.92
2016-10-28T12:31:37.817Z,1131.14